Time;durP1;ratioP1;P1;durP2;ratioP2;P2;SDS_P1;SDS_P2;PMS_P1;PMS_P2;Temp;Humidity;BMP_temperature;BMP_pressure;BME280_temperature;BME280_humidity;BME280_pressure;Samples;Min_cycle;Max_cycle;Signal;HPM_P1;HPM_P2
2023/07/08 00:02:16;;;;;;;22.38;10.10;;;;;;;25.32;54.65;101740.94;5019481;28;20049;-82
2023/07/08 00:04:47;;;;;;;22.73;10.18;;;;;;;25.50;53.74;101747.63;4983898;28;20052;-79
2023/07/08 00:07:19;;;;;;;20.38;9.65;;;;;;;25.45;53.26;101728.41;4946645;28;20129;-81
2023/07/08 00:09:45;;;;;;;25.17;9.73;;;;;;;25.26;53.56;101700.97;4930824;28;20050;-81
2023/07/08 00:12:12;;;;;;;22.10;9.60;;;;;;;25.38;53.38;101702.03;4923582;28;20486;-81
2023/07/08 00:14:39;;;;;;;21.05;9.30;;;;;;;25.34;53.68;101689.06;4991689;28;20182;-80
2023/07/08 00:17:12;;;;;;;19.08;9.75;;;;;;;25.19;53.49;101663.97;4989178;28;20051;-81
2023/07/08 00:19:39;;;;;;;22.52;9.40;;;;;;;25.46;54.04;101708.31;4962699;28;20471;-82
2023/07/08 00:22:13;;;;;;;12.85;8.10;;;;;;;25.48;54.36;101684.47;4957716;28;20128;-79
2023/07/08 00:24:43;;;;;;;21.10;9.70;;;;;;;24.84;54.58;101577.19;4960950;28;20054;-81
2023/07/08 00:27:12;;;;;;;26.70;10.38;;;;;;;25.49;54.44;101687.00;4968752;28;20081;-80
2023/07/08 00:29:39;;;;;;;23.52;9.40;;;;;;;25.42;54.53;101680.72;4963652;28;20652;-79
2023/07/08 00:32:14;;;;;;;14.23;9.15;;;;;;;25.46;54.84;101675.69;4966690;28;20074;-80
2023/07/08 00:35:02;;;;;;;16.67;8.95;;;;;;;25.30;55.52;101677.78;4957736;28;20426;-81
2023/07/08 00:37:29;;;;;;;20.15;9.95;;;;;;;25.40;55.28;101682.81;4998311;28;20046;-80
2023/07/08 00:39:59;;;;;;;15.70;8.77;;;;;;;25.22;55.09;101666.25;4985915;28;20050;-80
2023/07/08 00:42:26;;;;;;;13.48;8.98;;;;;;;25.21;55.23;101689.88;4958706;28;20133;-80
2023/07/08 00:44:54;;;;;;;16.48;8.30;;;;;;;25.01;55.91;101678.13;4974254;28;20058;-80
2023/07/08 00:47:22;;;;;;;20.13;9.68;;;;;;;24.53;56.17;101622.03;4991427;28;20060;-82
2023/07/08 00:49:55;;;;;;;14.75;8.73;;;;;;;24.72;56.89;101669.28;4955967;28;20073;-79
2023/07/08 00:52:26;;;;;;;17.75;9.52;;;;;;;24.81;57.05;101688.94;4955263;28;20149;-79
2023/07/08 00:54:59;;;;;;;16.75;8.90;;;;;;;24.72;56.84;101666.56;4956064;28;20148;-79
2023/07/08 00:57:32;;;;;;;17.30;9.18;;;;;;;24.71;57.33;101682.03;4959120;28;20050;-79
2023/07/08 01:00:09;;;;;;;19.88;9.00;;;;;;;24.58;57.33;101662.13;4967474;28;20423;-78
2023/07/08 01:03:00;;;;;;;17.88;8.82;;;;;;;24.69;57.46;101680.56;4902581;28;20891;-81
2023/07/08 01:05:30;;;;;;;17.42;9.10;;;;;;;24.74;57.37;101688.94;4929027;28;20058;-81
2023/07/08 01:08:03;;;;;;;13.60;8.40;;;;;;;24.75;56.83;101687.88;4965424;28;20050;-81
2023/07/08 01:10:48;;;;;;;12.68;7.72;;;;;;;24.72;57.42;101685.59;4929523;28;20486;-82
2023/07/08 01:13:16;;;;;;;22.80;9.15;;;;;;;24.77;56.99;101680.38;4955560;28;20445;-80
2023/07/08 01:15:48;;;;;;;15.15;8.98;;;;;;;24.41;57.25;101615.50;4952278;28;20738;-80
2023/07/08 01:18:24;;;;;;;17.35;9.23;;;;;;;24.79;57.08;101685.59;4965913;28;20521;-80
2023/07/08 01:20:55;;;;;;;17.17;9.02;;;;;;;24.55;57.36;101665.28;4952986;28;20522;-78
2023/07/08 01:23:24;;;;;;;25.75;9.65;;;;;;;24.55;57.70;101690.53;4964022;28;20057;-79
2023/07/08 01:25:53;;;;;;;23.50;10.25;;;;;;;24.29;57.88;101670.31;4985607;28;20137;-80
2023/07/08 01:28:27;;;;;;;22.15;9.15;;;;;;;23.71;57.97;101571.31;4945954;28;20094;-80
2023/07/08 01:31:04;;;;;;;13.55;8.60;;;;;;;24.03;58.07;101653.91;4894908;28;20155;-80
2023/07/08 01:33:34;;;;;;;15.15;8.90;;;;;;;24.12;58.63;101681.72;4950152;28;20108;-80
2023/07/08 01:36:04;;;;;;;16.38;9.88;;;;;;;24.05;58.82;101673.53;4930002;28;20062;-79
2023/07/08 01:38:32;;;;;;;14.27;8.50;;;;;;;24.19;58.54;101698.88;4936366;28;20057;-79
2023/07/08 01:41:02;;;;;;;18.15;8.43;;;;;;;24.18;58.46;101692.63;4914681;28;20483;-79
2023/07/08 01:43:35;;;;;;;17.73;8.73;;;;;;;24.00;58.81;101676.03;4921483;28;20063;-80
2023/07/08 01:46:27;;;;;;;16.20;9.45;;;;;;;24.00;59.42;101684.97;4923740;28;20043;-80
2023/07/08 01:49:05;;;;;;;18.75;9.70;;;;;;;23.85;59.59;101681.56;4913066;28;20072;-77
2023/07/08 01:51:32;;;;;;;20.63;10.00;;;;;;;23.93;59.92;101686.81;4970384;28;20115;-79
2023/07/08 01:53:59;;;;;;;18.48;10.45;;;;;;;23.60;59.90;101626.94;4993111;28;20385;-79
2023/07/08 01:56:39;;;;;;;17.48;10.05;;;;;;;23.87;60.03;101687.63;4896736;28;20306;-81
2023/07/08 01:59:18;;;;;;;14.77;9.80;;;;;;;23.76;60.11;101674.59;4894628;28;20073;-80
2023/07/08 02:02:01;;;;;;;16.98;9.35;;;;;;;23.75;60.30;101678.38;4889217;28;20208;-82
2023/07/08 02:04:40;;;;;;;16.45;9.18;;;;;;;23.80;60.41;101694.88;4931706;28;20430;-81
2023/07/08 02:07:10;;;;;;;17.17;9.02;;;;;;;23.84;60.25;101674.47;4963178;28;20138;-80
2023/07/08 02:09:37;;;;;;;14.35;8.30;;;;;;;23.67;60.22;101649.50;4966476;28;20137;-79
2023/07/08 02:12:04;;;;;;;15.55;8.90;;;;;;;23.31;60.26;101595.44;4970375;28;20051;-81
2023/07/08 02:14:31;;;;;;;13.60;8.18;;;;;;;23.61;60.44;101634.84;4974716;28;20445;-81
2023/07/08 02:16:58;;;;;;;15.30;8.43;;;;;;;23.73;60.65;101648.72;4937877;28;20819;-81
2023/07/08 02:19:27;;;;;;;19.90;9.73;;;;;;;23.98;60.32;101662.69;4984942;28;20623;-81
2023/07/08 02:21:54;;;;;;;16.15;9.32;;;;;;;23.84;59.87;101615.66;4983236;28;20057;-80
2023/07/08 02:24:22;;;;;;;18.60;9.30;;;;;;;23.95;59.59;101618.84;4963224;28;20303;-81
2023/07/08 02:26:55;;;;;;;16.00;9.13;;;;;;;24.10;59.26;101630.38;4957692;28;20075;-81
2023/07/08 02:29:24;;;;;;;14.73;8.40;;;;;;;24.14;58.86;101619.97;4965810;28;20042;-81
2023/07/08 02:31:51;;;;;;;17.27;9.20;;;;;;;24.19;58.65;101615.59;4965252;28;20124;-80
2023/07/08 02:34:22;;;;;;;16.33;8.30;;;;;;;24.33;58.00;101634.69;4950559;28;20379;-81
2023/07/08 02:36:56;;;;;;;15.15;8.35;;;;;;;24.07;58.34;101596.34;4953937;28;20454;-81
2023/07/08 02:39:23;;;;;;;15.02;8.95;;;;;;;24.50;58.00;101646.88;4955848;28;20818;-79
2023/07/08 02:41:50;;;;;;;13.10;7.72;;;;;;;24.43;58.17;101611.53;4912488;28;20881;-80
2023/07/08 02:44:19;;;;;;;10.88;7.28;;;;;;;24.68;57.84;101619.13;4970740;28;20474;-80
2023/07/08 02:46:45;;;;;;;16.00;7.88;;;;;;;24.59;55.84;101604.06;4977450;28;20046;-80
2023/07/08 02:49:13;;;;;;;16.02;7.75;;;;;;;24.65;55.15;101641.28;4954556;28;20125;-82
2023/07/08 02:51:44;;;;;;;14.27;7.70;;;;;;;24.41;55.53;101618.19;4941792;28;20042;-82
2023/07/08 02:54:13;;;;;;;14.95;7.68;;;;;;;24.51;55.52;101635.78;4953567;28;20129;-80
2023/07/08 02:56:40;;;;;;;11.90;7.88;;;;;;;24.36;55.19;101632.38;4947900;28;20100;-81
2023/07/08 02:59:09;;;;;;;12.40;7.35;;;;;;;24.00;55.14;101579.22;4975348;28;20236;-80
2023/07/08 03:01:41;;;;;;;10.85;6.82;;;;;;;23.96;54.87;101579.81;4937254;28;20054;-80
2023/07/08 03:04:12;;;;;;;12.75;7.68;;;;;;;24.10;55.95;101612.25;4925944;28;20065;-80
2023/07/08 03:06:41;;;;;;;12.35;7.70;;;;;;;24.26;55.84;101626.50;4944033;28;20046;-81
2023/07/08 03:09:10;;;;;;;15.60;7.35;;;;;;;24.06;55.43;101604.72;4946241;28;20054;-79
2023/07/08 03:11:37;;;;;;;10.60;6.85;;;;;;;24.03;54.93;101611.38;4955821;28;20046;-81
2023/07/08 03:14:05;;;;;;;15.90;7.20;;;;;;;23.76;54.80;101582.44;4964010;28;20097;-80
2023/07/08 03:16:32;;;;;;;13.82;7.00;;;;;;;24.07;55.17;101655.19;4982970;28;20054;-80
2023/07/08 03:18:59;;;;;;;13.38;7.30;;;;;;;23.74;55.45;101617.03;4923264;28;20084;-81
2023/07/08 03:21:26;;;;;;;15.85;7.60;;;;;;;23.83;55.91;101646.50;4956905;28;20356;-80
2023/07/08 03:23:53;;;;;;;13.40;7.05;;;;;;;23.75;56.19;101652.09;4959852;28;20433;-78
2023/07/08 03:26:22;;;;;;;15.05;7.55;;;;;;;23.61;56.47;101644.84;4940599;28;20629;-80
2023/07/08 03:28:53;;;;;;;12.80;7.28;;;;;;;23.51;56.73;101633.53;4937681;28;20569;-80
2023/07/08 03:31:24;;;;;;;12.27;7.53;;;;;;;22.98;56.90;101553.50;4973118;28;20096;-80
2023/07/08 03:33:51;;;;;;;14.13;7.13;;;;;;;23.49;57.00;101631.00;4982254;28;20576;-82
2023/07/08 03:36:25;;;;;;;13.32;8.13;;;;;;;23.07;56.75;101551.50;4945251;28;20100;-82
2023/07/08 03:38:55;;;;;;;13.70;8.02;;;;;;;23.67;56.67;101639.50;4967846;28;20481;-79
2023/07/08 03:41:28;;;;;;;17.98;7.22;;;;;;;23.86;58.00;101637.13;4960944;28;20417;-81
2023/07/08 03:43:59;;;;;;;13.75;7.18;;;;;;;23.95;56.80;101635.94;4935297;28;20085;-79
2023/07/08 03:46:32;;;;;;;13.35;7.57;;;;;;;24.05;56.22;101635.56;4951165;28;20050;-81
2023/07/08 03:49:01;;;;;;;17.27;7.50;;;;;;;23.94;55.46;101601.72;4945260;28;20049;-81
2023/07/08 03:51:32;;;;;;;15.27;6.70;;;;;;;23.68;54.96;101569.84;4950135;28;20580;-79
2023/07/08 03:53:59;;;;;;;;;;;;;;;23.85;54.49;101624.63;4956158;28;20069;-78
2023/07/08 03:56:26;;;;;;;13.35;6.72;;;;;;;23.67;54.95;101606.13;4987141;28;19922;-79
2023/07/08 03:58:53;;;;;;;15.82;7.93;;;;;;;23.68;55.19;101619.47;4997563;28;20100;-80
2023/07/08 04:01:26;;;;;;;12.07;7.43;;;;;;;23.61;55.14;101609.63;4951613;28;20138;-78
2023/07/08 04:03:55;;;;;;;11.70;7.03;;;;;;;23.80;56.81;101627.09;4966408;28;20056;-80
2023/07/08 04:06:23;;;;;;;15.48;7.47;;;;;;;23.65;58.33;101570.25;4982570;28;20177;-81
2023/07/08 04:08:50;;;;;;;16.60;7.75;;;;;;;23.72;56.60;101557.56;4951251;28;20418;-80
2023/07/08 04:11:20;;;;;;;13.82;7.28;;;;;;;24.02;57.79;101562.75;4957829;28;20296;-79
2023/07/08 04:13:47;;;;;;;17.08;7.45;;;;;;;24.25;54.58;101614.81;4943163;28;20052;-79
2023/07/08 04:16:28;;;;;;;11.70;7.40;;;;;;;24.06;53.93;101616.38;4929634;28;20077;-78
2023/07/08 04:18:56;;;;;;;16.10;7.90;;;;;;;23.52;54.38;101557.47;4965833;28;20064;-79
2023/07/08 04:21:27;;;;;;;12.63;7.22;;;;;;;23.86;54.26;101615.44;4970023;28;20460;-79
2023/07/08 04:23:55;;;;;;;;;;;;;;;23.59;54.33;101582.75;4970011;28;20077;-82
2023/07/08 04:26:23;;;;;;;15.70;7.30;;;;;;;23.81;54.92;101631.47;4984745;28;19921;-81
2023/07/08 04:28:50;;;;;;;17.23;7.75;;;;;;;23.66;55.27;101632.38;4959608;28;20041;-82
2023/07/08 04:31:17;;;;;;;13.10;7.45;;;;;;;23.57;56.04;101625.47;4976868;28;20061;-80
2023/07/08 04:33:43;;;;;;;17.83;8.25;;;;;;;23.56;55.66;101623.75;4977219;28;20101;-82
2023/07/08 04:36:14;;;;;;;11.95;7.05;;;;;;;23.52;55.18;101606.25;4965306;28;20066;-81
2023/07/08 04:38:42;;;;;;;13.68;7.07;;;;;;;23.47;55.76;101603.25;4964836;28;20054;-81
2023/07/08 04:41:08;;;;;;;14.50;7.80;;;;;;;23.50;55.42;101602.88;4948711;28;20403;-80
2023/07/08 04:43:35;;;;;;;18.92;6.93;;;;;;;23.55;55.59;101613.13;4950631;28;20246;-82
2023/07/08 04:46:15;;;;;;;18.17;7.63;;;;;;;23.49;55.89;101620.16;4972450;28;20050;-81
2023/07/08 04:48:41;;;;;;;18.13;7.15;;;;;;;23.50;55.76;101651.66;4942511;28;20078;-80
2023/07/08 04:51:08;;;;;;;24.23;7.40;;;;;;;23.36;56.43;101647.16;4967175;28;20345;-80
2023/07/08 04:53:35;;;;;;;15.70;6.68;;;;;;;23.36;56.82;101663.44;4959072;28;20050;-80
2023/07/08 04:56:02;;;;;;;18.80;8.05;;;;;;;23.23;57.01;101651.44;4996884;28;20050;-81
2023/07/08 04:58:29;;;;;;;14.77;7.47;;;;;;;23.18;56.98;101653.91;4963848;28;20061;-80
2023/07/08 05:00:59;;;;;;;13.07;6.80;;;;;;;23.04;57.00;101622.31;4992654;28;20549;-82
2023/07/08 05:03:26;;;;;;;15.23;8.02;;;;;;;23.46;57.60;101685.59;4995137;28;20089;-81
2023/07/08 05:05:53;;;;;;;14.30;7.82;;;;;;;23.54;57.76;101679.19;4998556;28;20117;-80
2023/07/08 05:08:20;;;;;;;9.95;7.38;;;;;;;23.55;57.36;101673.59;4983433;28;20523;-81
2023/07/08 05:10:48;;;;;;;13.30;8.10;;;;;;;23.66;57.71;101686.59;4989618;28;20407;-79
2023/07/08 05:13:14;;;;;;;16.42;7.90;;;;;;;23.60;57.01;101643.19;5003596;28;20577;-80
2023/07/08 05:15:42;;;;;;;17.20;8.27;;;;;;;23.72;56.37;101638.06;4949775;28;20578;-81
2023/07/08 05:18:09;;;;;;;13.38;8.15;;;;;;;23.93;55.88;101662.41;4987391;28;20137;-82
2023/07/08 05:20:36;;;;;;;14.88;8.00;;;;;;;24.05;56.25;101678.97;4957445;28;20118;-81
2023/07/08 05:23:03;;;;;;;14.60;7.82;;;;;;;24.36;56.92;101677.69;4942565;28;20103;-79
2023/07/08 05:25:32;;;;;;;20.70;8.48;;;;;;;24.41;55.82;101681.44;4976181;28;20072;-80
2023/07/08 05:27:59;;;;;;;14.95;7.95;;;;;;;24.27;55.87;101655.28;4995800;28;20053;-81
2023/07/08 05:30:26;;;;;;;12.57;7.20;;;;;;;24.51;56.32;101659.38;4987560;28;20060;-80
2023/07/08 05:32:53;;;;;;;12.00;8.48;;;;;;;24.61;55.34;101670.69;4960374;28;20049;-80
2023/07/08 05:35:20;;;;;;;16.00;8.55;;;;;;;24.65;55.15;101657.56;4986635;28;20100;-81
2023/07/08 05:37:47;;;;;;;19.70;9.57;;;;;;;24.61;55.28;101640.00;4981913;28;20145;-80
2023/07/08 05:40:20;;;;;;;14.32;8.30;;;;;;;24.77;55.22;101660.53;4950906;28;20156;-81
2023/07/08 05:42:49;;;;;;;14.85;8.05;;;;;;;24.62;55.11;101642.53;4953396;28;20133;-81
2023/07/08 05:45:16;;;;;;;20.02;8.23;;;;;;;24.67;55.02;101650.06;4950337;28;20417;-81
2023/07/08 05:47:45;;;;;;;18.15;7.75;;;;;;;24.72;55.31;101642.13;4991511;28;20504;-80
2023/07/08 05:50:15;;;;;;;13.77;8.05;;;;;;;24.95;54.19;101658.03;4958460;28;20441;-80
2023/07/08 05:52:42;;;;;;;15.57;8.07;;;;;;;24.94;55.21;101670.78;4982464;28;20085;-80
2023/07/08 05:55:16;;;;;;;14.40;7.93;;;;;;;24.85;55.03;101630.47;4978234;28;20378;-81
2023/07/08 05:57:45;;;;;;;13.82;7.72;;;;;;;25.24;56.05;101631.56;4966531;28;20458;-78
2023/07/08 06:00:12;;;;;;;13.85;7.80;;;;;;;25.35;54.53;101631.78;4983274;28;20056;-80
2023/07/08 06:02:49;;;;;;;13.43;7.85;;;;;;;25.46;54.24;101632.19;5000383;28;20108;-78
2023/07/08 06:05:16;;;;;;;11.77;7.90;;;;;;;25.77;54.75;101639.69;4958314;28;20046;-80
2023/07/08 06:07:43;;;;;;;15.13;8.23;;;;;;;26.08;53.11;101630.03;5020635;28;20068;-79
2023/07/08 06:10:20;;;;;;;14.32;8.13;;;;;;;25.74;52.93;101564.81;5007151;28;20045;-81
2023/07/08 06:12:50;;;;;;;14.98;7.78;;;;;;;25.99;53.03;101605.75;4977659;28;20120;-79
2023/07/08 06:15:17;;;;;;;14.50;7.70;;;;;;;26.10;52.96;101649.69;4985368;28;20463;-81
2023/07/08 06:17:43;;;;;;;14.80;8.07;;;;;;;26.08;53.07;101633.56;4998333;28;20575;-80
2023/07/08 06:20:10;;;;;;;17.48;9.10;;;;;;;25.98;53.08;101633.19;4983939;28;20046;-80
2023/07/08 06:22:37;;;;;;;20.02;7.72;;;;;;;25.98;52.18;101649.53;5005678;28;20051;-79
2023/07/08 06:25:14;;;;;;;13.68;8.68;;;;;;;25.67;52.06;101604.78;4987928;28;20145;-81
2023/07/08 06:27:44;;;;;;;13.40;7.85;;;;;;;25.81;53.11;101608.31;4997450;28;20096;-81
2023/07/08 06:30:11;;;;;;;17.75;7.88;;;;;;;25.79;51.67;101605.78;5008858;28;20041;-80
2023/07/08 06:32:38;;;;;;;14.27;7.97;;;;;;;25.95;52.91;101630.91;5030743;28;20435;-80
2023/07/08 06:35:05;;;;;;;12.45;7.35;;;;;;;25.95;52.42;101618.13;4965980;28;20549;-80
2023/07/08 06:37:35;;;;;;;12.90;8.13;;;;;;;26.11;52.89;101618.69;4958501;28;20134;-80
2023/07/08 06:40:03;;;;;;;11.75;7.50;;;;;;;26.20;53.29;101612.81;4950329;28;20053;-81
2023/07/08 06:42:35;;;;;;;10.55;7.30;;;;;;;25.85;53.85;101547.00;4981923;28;20245;-78
2023/07/08 06:45:03;;;;;;;10.52;7.30;;;;;;;26.38;54.12;101616.69;4966015;28;20694;-79
2023/07/08 06:47:29;;;;;;;17.45;8.07;;;;;;;26.67;53.28;101628.09;4949141;28;20054;-78
2023/07/08 06:49:57;;;;;;;13.85;8.45;;;;;;;26.53;51.66;101643.63;4957928;28;20159;-78
2023/07/08 06:52:25;;;;;;;9.82;7.43;;;;;;;26.52;51.96;101656.41;4963870;28;20042;-78
2023/07/08 06:54:52;;;;;;;14.15;8.07;;;;;;;26.48;52.15;101647.00;4948877;28;20084;-78
2023/07/08 06:57:22;;;;;;;14.15;7.93;;;;;;;26.60;52.12;101647.19;4956632;28;20056;-78
2023/07/08 06:59:48;;;;;;;13.23;6.60;;;;;;;26.74;52.74;101667.03;4989996;28;20497;-78
2023/07/08 07:02:16;;;;;;;14.70;7.97;;;;;;;26.70;51.86;101649.44;4967932;28;20045;-79
2023/07/08 07:04:43;;;;;;;13.85;7.88;;;;;;;26.75;51.41;101658.66;4986707;28;20053;-78
2023/07/08 07:07:13;;;;;;;15.38;7.75;;;;;;;26.20;50.59;101584.75;4970796;28;20111;-78
2023/07/08 07:09:40;;;;;;;14.90;7.53;;;;;;;26.88;51.45;101673.25;4968239;28;20061;-80
2023/07/08 07:12:07;;;;;;;16.95;8.52;;;;;;;26.92;50.32;101669.00;4985969;28;20397;-78
2023/07/08 07:14:40;;;;;;;13.30;7.63;;;;;;;26.97;52.23;101648.25;4985431;28;20065;-78
2023/07/08 07:17:12;;;;;;;16.27;7.65;;;;;;;26.97;51.57;101618.28;5002365;28;20069;-79
2023/07/08 07:19:39;;;;;;;14.32;8.02;;;;;;;26.91;50.57;101581.00;4979758;28;20045;-79
2023/07/08 07:22:08;;;;;;;11.40;7.78;;;;;;;27.20;51.78;101616.84;4974273;28;20056;-79
2023/07/08 07:24:35;;;;;;;8.40;6.28;;;;;;;27.22;52.07;101587.50;5004825;28;20049;-78
2023/07/08 07:27:02;;;;;;;10.38;6.35;;;;;;;27.62;51.00;101587.94;4982350;28;20064;-79
2023/07/08 07:29:40;;;;;;;11.45;7.43;;;;;;;27.77;51.27;101563.03;5001367;28;20469;-78
2023/07/08 07:32:08;;;;;;;11.52;7.25;;;;;;;27.63;50.75;101547.88;5004457;28;20780;-77
2023/07/08 07:34:35;;;;;;;8.32;7.00;;;;;;;27.64;49.71;101563.16;4986985;28;20093;-80
2023/07/08 07:37:12;;;;;;;15.20;8.38;;;;;;;27.56;49.27;101574.38;4978469;28;20050;-80
2023/07/08 07:39:40;;;;;;;16.67;6.80;;;;;;;27.40;50.65;101549.34;4984073;28;20046;-79
2023/07/08 07:42:07;;;;;;;12.73;7.45;;;;;;;27.38;49.70;101543.31;4993287;28;20053;-79
2023/07/08 07:44:34;;;;;;;12.90;7.50;;;;;;;27.65;49.07;101575.75;4997773;28;20053;-79
2023/07/08 07:47:02;;;;;;;14.23;8.50;;;;;;;27.52;48.38;101589.50;4966554;28;20045;-80
2023/07/08 07:49:32;;;;;;;15.18;8.68;;;;;;;27.69;48.43;101609.69;4964505;28;20038;-78
2023/07/08 07:51:59;;;;;;;15.38;7.30;;;;;;;27.70;49.84;101587.66;4966944;28;20080;-79
2023/07/08 07:54:26;;;;;;;10.70;7.00;;;;;;;27.65;49.47;101556.66;4967037;28;20046;-81
2023/07/08 07:56:53;;;;;;;14.65;7.70;;;;;;;27.97;49.18;101603.75;4976744;28;20448;-79
2023/07/08 07:59:23;;;;;;;10.85;7.25;;;;;;;28.05;50.19;101597.13;4970204;28;20057;-80
2023/07/08 08:01:53;;;;;;;10.52;6.53;;;;;;;28.08;49.97;101592.03;4978254;28;20103;-78
2023/07/08 08:04:20;;;;;;;14.68;7.35;;;;;;;28.02;49.23;101587.50;4992127;28;20046;-79
2023/07/08 08:06:49;;;;;;;10.23;6.72;;;;;;;27.96;51.02;101569.31;4969643;28;20046;-78
2023/07/08 08:09:16;;;;;;;10.18;6.57;;;;;;;27.77;48.63;101519.38;4962349;28;20060;-78
2023/07/08 08:11:44;;;;;;;14.27;7.32;;;;;;;27.86;49.26;101578.03;4986786;28;20046;-80
2023/07/08 08:14:14;;;;;;;14.13;7.65;;;;;;;28.21;49.89;101612.91;5001172;28;20061;-80
2023/07/08 08:16:41;;;;;;;11.50;7.00;;;;;;;28.43;49.08;101593.28;4975785;28;20038;-79
2023/07/08 08:19:08;;;;;;;12.68;6.78;;;;;;;28.12;47.88;101567.88;4970550;28;20249;-80
2023/07/08 08:21:35;;;;;;;10.93;7.53;;;;;;;28.20;49.60;101608.47;4971972;28;20530;-78
2023/07/08 08:24:07;;;;;;;15.00;7.63;;;;;;;28.21;48.63;101607.44;4964360;28;20559;-77
2023/07/08 08:26:39;;;;;;;10.75;6.75;;;;;;;28.15;49.09;101591.97;4974949;28;20056;-80
2023/07/08 08:29:10;;;;;;;14.18;6.88;;;;;;;28.27;48.77;101619.31;4987614;28;20399;-79
2023/07/08 08:31:38;;;;;;;12.55;7.10;;;;;;;28.15;49.38;101597.41;4981513;28;20050;-80
2023/07/08 08:34:05;;;;;;;18.17;8.15;;;;;;;28.23;47.20;101621.69;4978807;28;20038;-79
2023/07/08 08:36:32;;;;;;;12.65;8.15;;;;;;;28.06;45.56;101631.53;4980173;28;20494;-79
2023/07/08 08:38:58;;;;;;;11.35;7.00;;;;;;;27.97;47.16;101622.84;4943849;28;20108;-79
2023/07/08 08:41:37;;;;;;;12.68;7.15;;;;;;;28.37;42.86;101637.91;4961509;28;20050;-78
2023/07/08 08:44:05;;;;;;;9.80;7.13;;;;;;;28.36;47.35;101636.25;4963595;28;20624;-79
2023/07/08 08:46:43;;;;;;;11.82;7.25;;;;;;;28.58;46.93;101612.84;4950608;28;20386;-79
2023/07/08 08:49:31;;;;;;;13.20;7.40;;;;;;;28.52;46.72;101638.34;4958086;28;20053;-79
2023/07/08 08:51:59;;;;;;;12.38;7.68;;;;;;;28.39;47.39;101605.75;4972741;28;20054;-80
2023/07/08 08:54:27;;;;;;;13.60;7.10;;;;;;;28.67;48.25;101637.97;4953421;28;20413;-81
2023/07/08 08:57:05;;;;;;;14.20;7.57;;;;;;;28.53;47.83;101653.69;4982407;28;20081;-81
2023/07/08 08:59:45;;;;;;;12.30;6.63;;;;;;;28.27;46.05;101642.00;4971791;28;20046;-80
2023/07/08 09:02:26;;;;;;;11.00;6.95;;;;;;;28.30;46.37;101649.75;4982083;28;20054;-80
2023/07/08 09:04:52;;;;;;;10.70;7.20;;;;;;;28.74;46.72;101653.19;4989578;28;20300;-80
2023/07/08 09:07:21;;;;;;;13.15;6.53;;;;;;;28.66;46.38;101652.66;4943819;28;20543;-81
2023/07/08 09:10:15;;;;;;;12.30;7.18;;;;;;;28.55;47.23;101657.03;4938514;28;20399;-80
2023/07/08 09:12:41;;;;;;;13.90;6.53;;;;;;;28.35;46.86;101608.06;4955372;28;20100;-78
2023/07/08 09:15:15;;;;;;;19.58;8.60;;;;;;;28.28;45.70;101646.41;4954825;28;20410;-78
2023/07/08 09:17:42;;;;;;;11.20;7.18;;;;;;;28.47;40.79;101671.84;4969798;28;20089;-80
2023/07/08 09:20:29;;;;;;;10.77;7.30;;;;;;;28.59;43.23;101671.88;4960747;28;20494;-80
2023/07/08 09:23:12;;;;;;;13.50;6.90;;;;;;;28.94;44.62;101674.75;4932862;28;20050;-78
2023/07/08 09:25:49;;;;;;;15.82;7.95;;;;;;;28.98;42.92;101675.09;4979777;28;20254;-78
2023/07/08 09:28:16;;;;;;;13.38;7.80;;;;;;;28.92;44.01;101662.38;4985603;28;20108;-83
2023/07/08 09:30:52;;;;;;;18.80;7.57;;;;;;;28.82;43.94;101656.66;4985006;28;20042;-80
2023/07/08 09:33:26;;;;;;;12.25;6.80;;;;;;;28.76;43.92;101623.72;4989849;28;20077;-81
2023/07/08 09:35:53;;;;;;;13.68;7.88;;;;;;;28.91;41.39;101683.41;4949273;28;20088;-80
2023/07/08 09:38:22;;;;;;;21.98;7.95;;;;;;;28.75;41.95;101630.25;4957448;28;20414;-80
2023/07/08 09:40:53;;;;;;;16.13;7.80;;;;;;;29.04;41.26;101651.47;4967541;28;20312;-81
2023/07/08 09:43:25;;;;;;;15.23;7.93;;;;;;;28.97;41.60;101638.75;4958910;28;20074;-80
2023/07/08 09:45:58;;;;;;;11.75;6.78;;;;;;;29.22;43.45;101677.94;4942635;28;20069;-80
2023/07/08 09:48:28;;;;;;;16.48;8.60;;;;;;;29.32;41.64;101689.13;4963685;28;20065;-82
2023/07/08 09:50:58;;;;;;;13.30;7.20;;;;;;;29.04;37.20;101622.25;4968718;28;20553;-79
2023/07/08 09:53:28;;;;;;;10.53;7.53;;;;;;;29.54;42.12;101668.34;4966239;28;20054;-82
2023/07/08 09:56:02;;;;;;;12.25;6.93;;;;;;;29.83;42.03;101663.00;4979632;28;20100;-80
2023/07/08 09:58:37;;;;;;;13.30;7.05;;;;;;;29.36;40.45;101636.44;4981521;28;20484;-80
2023/07/08 10:01:11;;;;;;;10.48;6.63;;;;;;;29.75;43.00;101671.59;4973580;28;20069;-80
2023/07/08 10:03:38;;;;;;;12.52;7.15;;;;;;;29.44;43.17;101638.00;4984416;28;20406;-80
2023/07/08 10:06:24;;;;;;;12.73;7.70;;;;;;;29.22;43.60;101645.94;4974043;28;20045;-80
2023/07/08 10:09:02;;;;;;;11.48;7.20;;;;;;;29.25;44.80;101666.50;4969141;28;20298;-80
2023/07/08 10:11:45;;;;;;;11.25;7.05;;;;;;;29.09;44.06;101668.88;4961070;28;20046;-81
2023/07/08 10:14:26;;;;;;;11.43;7.28;;;;;;;29.14;44.37;101671.72;4962966;28;20442;-81
2023/07/08 10:16:53;;;;;;;10.65;7.20;;;;;;;28.81;42.16;101661.25;4958591;28;20046;-80
2023/07/08 10:19:21;;;;;;;10.90;7.55;;;;;;;28.97;39.74;101635.19;4964331;28;20100;-82
2023/07/08 10:22:21;;;;;;;14.52;7.85;;;;;;;29.16;39.52;101612.19;4973277;28;20125;-81
2023/07/08 10:25:23;;;;;;;15.02;7.18;;;;;;;29.49;42.66;101640.88;4978457;28;20050;-81
2023/07/08 10:27:57;;;;;;;12.52;7.68;;;;;;;29.33;42.46;101657.97;4983566;28;20119;-79
2023/07/08 10:30:29;;;;;;;14.68;7.75;;;;;;;29.38;44.21;101644.44;4990675;28;20096;-80
2023/07/08 10:33:42;;;;;;;9.35;6.70;;;;;;;29.56;42.96;101646.22;4974920;28;20049;-80
2023/07/08 10:36:25;;;;;;;11.90;7.32;;;;;;;29.05;43.35;101591.09;4927633;28;20129;-80
2023/07/08 10:39:38;;;;;;;13.27;6.88;;;;;;;29.12;43.14;101624.66;4948534;28;20046;-80
2023/07/08 10:42:12;;;;;;;12.75;7.22;;;;;;;28.63;42.36;101572.00;4953387;28;20511;-82
2023/07/08 10:45:09;;;;;;;12.48;7.07;;;;;;;29.19;43.42;101614.44;4967767;28;20043;-79
2023/07/08 10:47:45;;;;;;;11.00;8.05;;;;;;;28.99;40.43;101627.59;4989831;28;20136;-80
2023/07/08 10:50:34;;;;;;;13.07;7.47;;;;;;;29.10;41.33;101620.50;4999351;28;20057;-81
2023/07/08 10:53:39;;;;;;;10.35;6.78;;;;;;;29.39;43.17;101611.34;4995616;28;20341;-80
2023/07/08 10:56:12;;;;;;;10.75;7.45;;;;;;;29.89;41.86;101620.16;4977671;28;20129;-81
2023/07/08 10:58:57;;;;;;;14.57;8.02;;;;;;;29.71;41.14;101604.72;4936544;28;21002;-81
2023/07/08 11:01:30;;;;;;;10.07;6.90;;;;;;;29.63;41.80;101574.97;4965404;28;20058;-81
2023/07/08 11:04:24;;;;;;;12.75;7.68;;;;;;;29.97;41.76;101625.25;4932989;28;20491;-81
2023/07/08 11:07:05;;;;;;;10.20;7.07;;;;;;;29.68;38.65;101605.19;4981203;28;20137;-82
2023/07/08 11:09:41;;;;;;;;;;;;;;;29.57;42.53;101621.34;4918572;28;20415;-82
2023/07/08 11:12:34;;;;;;;12.73;7.15;;;;;;;29.54;42.12;101578.06;4917159;28;20436;-81
2023/07/08 11:15:25;;;;;;;12.30;8.25;;;;;;;29.57;42.32;101621.34;4914957;28;20050;-81
2023/07/08 11:18:23;;;;;;;12.55;6.68;;;;;;;29.69;42.14;101601.41;4917702;28;20554;-81
2023/07/08 11:21:06;;;;;;;14.77;7.72;;;;;;;29.41;42.76;101550.97;4920367;28;20081;-81
2023/07/08 11:23:43;;;;;;;14.93;8.23;;;;;;;29.34;43.18;101566.66;4924239;28;20116;-81
2023/07/08 11:26:38;;;;;;;12.40;7.43;;;;;;;29.57;42.30;101610.41;4942676;28;20120;-81
2023/07/08 11:29:45;;;;;;;16.13;7.85;;;;;;;29.21;39.11;101548.59;4926475;28;20936;-82
2023/07/08 11:32:17;;;;;;;12.90;7.38;;;;;;;29.74;41.34;101596.03;4969025;28;20046;-81
2023/07/08 11:34:47;;;;;;;12.10;7.53;;;;;;;30.02;41.07;101601.56;4923673;28;20126;-81
2023/07/08 11:37:22;;;;;;;14.10;9.13;;;;;;;29.85;40.48;101578.75;4897233;28;20050;-82
2023/07/08 11:40:01;;;;;;;12.73;7.75;;;;;;;30.09;41.00;101579.53;4908601;28;20578;-81